sensor_id;sensor_type;location;lat;lon;timestamp;pressure;altitude;pressure_sealevel;temperature;humidity
55032;BME280;40928;51.076;7.950;2022-07-23T00:00:33;97258.91;;;16.13;97.97
55032;BME280;40928;51.076;7.950;2022-07-23T00:02:59;97258.38;;;16.11;98.13
55032;BME280;40928;51.076;7.950;2022-07-23T00:05:24;97263.47;;;16.08;98.67
55032;BME280;40928;51.076;7.950;2022-07-23T00:07:50;97265.13;;;16.04;98.70
55032;BME280;40928;51.076;7.950;2022-07-23T00:10:15;97281.28;;;16.04;99.06
55032;BME280;40928;51.076;7.950;2022-07-23T00:12:41;97283.69;;;16.05;98.86
55032;BME280;40928;51.076;7.950;2022-07-23T00:15:08;97290.41;;;16.08;98.81
55032;BME280;40928;51.076;7.950;2022-07-23T00:17:34;97295.53;;;16.04;98.95
55032;BME280;40928;51.076;7.950;2022-07-23T00:19:59;97303.91;;;16.03;98.87
55032;BME280;40928;51.076;7.950;2022-07-23T00:22:25;97316.81;;;16.01;98.57
55032;BME280;40928;51.076;7.950;2022-07-23T00:24:51;97328.91;;;15.98;98.99
55032;BME280;40928;51.076;7.950;2022-07-23T00:27:16;97320.03;;;15.97;99.10
55032;BME280;40928;51.076;7.950;2022-07-23T00:29:42;97303.34;;;15.95;98.91
55032;BME280;40928;51.076;7.950;2022-07-23T00:32:07;97293.66;;;16.00;98.89
55032;BME280;40928;51.076;7.950;2022-07-23T00:34:33;97290.97;;;16.00;98.63
55032;BME280;40928;51.076;7.950;2022-07-23T00:36:58;97277.22;;;16.01;98.57
55032;BME280;40928;51.076;7.950;2022-07-23T00:39:24;97262.94;;;16.01;98.47
55032;BME280;40928;51.076;7.950;2022-07-23T00:41:50;97268.88;;;16.03;98.54
55032;BME280;40928;51.076;7.950;2022-07-23T00:44:26;97276.69;;;16.04;97.91
55032;BME280;40928;51.076;7.950;2022-07-23T00:46:54;97281.00;;;16.05;97.87
55032;BME280;40928;51.076;7.950;2022-07-23T00:49:25;97282.34;;;16.08;97.66
55032;BME280;40928;51.076;7.950;2022-07-23T00:51:51;97274.78;;;16.05;97.56
55032;BME280;40928;51.076;7.950;2022-07-23T00:54:18;97281.53;;;16.07;96.82
55032;BME280;40928;51.076;7.950;2022-07-23T00:56:45;97275.06;;;16.03;96.42
55032;BME280;40928;51.076;7.950;2022-07-23T00:59:11;97281.28;;;16.04;96.19
55032;BME280;40928;51.076;7.950;2022-07-23T01:01:36;97283.97;;;16.04;96.19
55032;BME280;40928;51.076;7.950;2022-07-23T01:04:02;97281.28;;;16.04;95.93
55032;BME280;40928;51.076;7.950;2022-07-23T01:06:28;97280.19;;;16.00;95.27
55032;BME280;40928;51.076;7.950;2022-07-23T01:08:54;97281.81;;;16.01;95.25
55032;BME280;40928;51.076;7.950;2022-07-23T01:11:22;97280.97;;;16.00;95.17
55032;BME280;40928;51.076;7.950;2022-07-23T01:13:48;97286.66;;;15.98;95.25
55032;BME280;40928;51.076;7.950;2022-07-23T01:16:13;97294.19;;;15.96;95.30
55032;BME280;40928;51.076;7.950;2022-07-23T01:18:39;97288.53;;;15.93;95.81
55032;BME280;40928;51.076;7.950;2022-07-23T01:21:05;97284.75;;;15.89;95.95
55032;BME280;40928;51.076;7.950;2022-07-23T01:23:31;97280.16;;;15.89;95.82
55032;BME280;40928;51.076;7.950;2022-07-23T01:25:58;97271.00;;;15.90;96.11
55032;BME280;40928;51.076;7.950;2022-07-23T01:28:25;97271.00;;;15.90;95.85
55032;BME280;40928;51.076;7.950;2022-07-23T01:30:51;97278.81;;;15.92;95.68
55032;BME280;40928;51.076;7.950;2022-07-23T01:33:16;97287.44;;;15.89;95.71
55032;BME280;40928;51.076;7.950;2022-07-23T01:35:42;97291.19;;;15.88;95.23
55032;BME280;40928;51.076;7.950;2022-07-23T01:38:08;97285.53;;;15.89;95.30
55032;BME280;40928;51.076;7.950;2022-07-23T01:40:35;97277.47;;;15.89;95.16
55032;BME280;40928;51.076;7.950;2022-07-23T01:43:01;97265.84;;;15.83;95.11
55032;BME280;40928;51.076;7.950;2022-07-23T01:45:29;97269.06;;;15.80;95.27
55032;BME280;40928;51.076;7.950;2022-07-23T01:47:54;97277.69;;;15.77;95.24
55032;BME280;40928;51.076;7.950;2022-07-23T01:50:20;97273.38;;;15.81;95.19
55032;BME280;40928;51.076;7.950;2022-07-23T01:53:04;97264.78;;;15.79;95.33
55032;BME280;40928;51.076;7.950;2022-07-23T01:55:30;97270.97;;;15.80;95.16
55032;BME280;40928;51.076;7.950;2022-07-23T01:57:56;97259.66;;;15.78;95.12
55032;BME280;40928;51.076;7.950;2022-07-23T02:00:27;97257.75;;;15.73;95.23
55032;BME280;40928;51.076;7.950;2022-07-23T02:02:52;97246.19;;;15.67;95.71
55032;BME280;40928;51.076;7.950;2022-07-23T02:05:18;97258.53;;;15.63;96.00
55032;BME280;40928;51.076;7.950;2022-07-23T02:07:44;97260.69;;;15.61;96.36
55032;BME280;40928;51.076;7.950;2022-07-23T02:10:10;97261.75;;;15.60;96.46
55032;BME280;40928;51.076;7.950;2022-07-23T02:12:36;97249.63;;;15.52;96.60
55032;BME280;40928;51.076;7.950;2022-07-23T02:15:02;97247.47;;;15.55;96.78
55032;BME280;40928;51.076;7.950;2022-07-23T02:17:28;97245.63;;;15.55;96.75
55032;BME280;40928;51.076;7.950;2022-07-23T02:19:53;97241.31;;;15.54;96.82
55032;BME280;40928;51.076;7.950;2022-07-23T02:22:21;97257.69;;;15.52;96.87
55032;BME280;40928;51.076;7.950;2022-07-23T02:24:48;97244.00;;;15.54;97.06
55032;BME280;40928;51.076;7.950;2022-07-23T02:27:14;97227.03;;;15.53;97.14
55032;BME280;40928;51.076;7.950;2022-07-23T02:29:40;97220.56;;;15.55;97.11
55032;BME280;40928;51.076;7.950;2022-07-23T02:32:06;97223.81;;;15.57;96.78
55032;BME280;40928;51.076;7.950;2022-07-23T02:34:31;97216.28;;;15.59;96.49
55032;BME280;40928;51.076;7.950;2022-07-23T02:36:56;97219.50;;;15.61;96.54
55032;BME280;40928;51.076;7.950;2022-07-23T02:39:23;97229.75;;;15.64;96.58
55032;BME280;40928;51.076;7.950;2022-07-23T02:41:49;97219.50;;;15.66;96.80
55032;BME280;40928;51.076;7.950;2022-07-23T02:44:15;97219.00;;;15.64;97.11
55032;BME280;40928;51.076;7.950;2022-07-23T02:46:43;97228.41;;;15.66;96.79
55032;BME280;40928;51.076;7.950;2022-07-23T02:49:09;97233.50;;;15.68;96.56
55032;BME280;40928;51.076;7.950;2022-07-23T02:51:34;97230.56;;;15.70;96.61
55032;BME280;40928;51.076;7.950;2022-07-23T02:54:04;97233.78;;;15.66;96.15
55032;BME280;40928;51.076;7.950;2022-07-23T02:56:29;97232.72;;;15.67;96.02
55032;BME280;40928;51.076;7.950;2022-07-23T02:58:56;97229.75;;;15.69;95.85
55032;BME280;40928;51.076;7.950;2022-07-23T03:01:21;97239.44;;;15.70;95.93
55032;BME280;40928;51.076;7.950;2022-07-23T03:03:47;97243.47;;;15.73;95.99
55032;BME280;40928;51.076;7.950;2022-07-23T03:06:12;97223.03;;;15.72;96.15
55032;BME280;40928;51.076;7.950;2022-07-23T03:08:39;97210.38;;;15.62;96.99
55032;BME280;40928;51.076;7.950;2022-07-23T03:11:05;97227.84;;;15.64;97.53
55032;BME280;40928;51.076;7.950;2022-07-23T03:13:37;97213.59;;;15.64;98.95
55032;BME280;40928;51.076;7.950;2022-07-23T03:16:03;97214.41;;;15.64;98.95
55032;BME280;40928;51.076;7.950;2022-07-23T03:18:29;97216.53;;;15.62;99.31
55032;BME280;40928;51.076;7.950;2022-07-23T03:20:55;97218.16;;;15.58;100.00
55032;BME280;40928;51.076;7.950;2022-07-23T03:23:21;97223.00;;;15.56;100.00
55032;BME280;40928;51.076;7.950;2022-07-23T03:25:47;97213.03;;;15.57;100.00
55032;BME280;40928;51.076;7.950;2022-07-23T03:28:16;97219.78;;;15.54;100.00
55032;BME280;40928;51.076;7.950;2022-07-23T03:30:47;97212.75;;;15.48;100.00
55032;BME280;40928;51.076;7.950;2022-07-23T03:33:14;97215.97;;;15.40;100.00
55032;BME280;40928;51.076;7.950;2022-07-23T03:35:43;97212.97;;;15.36;100.00
55032;BME280;40928;51.076;7.950;2022-07-23T03:38:16;97210.03;;;15.37;100.00
55032;BME280;40928;51.076;7.950;2022-07-23T03:40:42;97211.66;;;15.38;100.00
55032;BME280;40928;51.076;7.950;2022-07-23T03:43:07;97217.31;;;15.42;100.00
55032;BME280;40928;51.076;7.950;2022-07-23T03:45:33;97219.75;;;15.38;100.00
55032;BME280;40928;51.076;7.950;2022-07-23T03:47:59;97218.91;;;15.38;100.00
55032;BME280;40928;51.076;7.950;2022-07-23T03:50:25;97217.56;;;15.35;100.00
55032;BME280;40928;51.076;7.950;2022-07-23T03:52:51;97219.44;;;15.35;100.00
55032;BME280;40928;51.076;7.950;2022-07-23T03:55:16;97218.38;;;15.31;100.00
55032;BME280;40928;51.076;7.950;2022-07-23T03:57:43;97222.66;;;15.27;100.00
55032;BME280;40928;51.076;7.950;2022-07-23T04:00:10;97217.56;;;15.25;100.00
55032;BME280;40928;51.076;7.950;2022-07-23T04:02:43;97221.84;;;15.21;100.00
55032;BME280;40928;51.076;7.950;2022-07-23T04:05:11;97228.00;;;15.16;100.00
55032;BME280;40928;51.076;7.950;2022-07-23T04:07:37;97235.78;;;15.13;100.00
55032;BME280;40928;51.076;7.950;2022-07-23T04:10:03;97229.31;;;15.14;100.00
55032;BME280;40928;51.076;7.950;2022-07-23T04:12:28;97233.63;;;15.15;100.00
55032;BME280;40928;51.076;7.950;2022-07-23T04:14:55;97237.13;;;15.10;100.00
55032;BME280;40928;51.076;7.950;2022-07-23T04:17:21;97228.75;;;15.01;100.00
55032;BME280;40928;51.076;7.950;2022-07-23T04:19:46;97232.50;;;15.00;100.00
55032;BME280;40928;51.076;7.950;2022-07-23T04:22:15;97231.72;;;15.00;100.00
55032;BME280;40928;51.076;7.950;2022-07-23T04:24:41;97234.91;;;14.97;100.00
55032;BME280;40928;51.076;7.950;2022-07-23T04:27:08;97228.44;;;14.92;100.00
55032;BME280;40928;51.076;7.950;2022-07-23T04:29:33;97230.31;;;14.92;100.00
55032;BME280;40928;51.076;7.950;2022-07-23T04:31:59;97236.78;;;14.91;100.00
55032;BME280;40928;51.076;7.950;2022-07-23T04:34:24;97238.38;;;14.92;100.00
55032;BME280;40928;51.076;7.950;2022-07-23T04:36:52;97231.94;;;14.93;100.00
55032;BME280;40928;51.076;7.950;2022-07-23T04:39:19;97237.31;;;14.93;100.00
55032;BME280;40928;51.076;7.950;2022-07-23T04:41:45;97233.56;;;14.94;100.00
55032;BME280;40928;51.076;7.950;2022-07-23T04:44:12;97241.63;;;14.94;100.00
55032;BME280;40928;51.076;7.950;2022-07-23T04:46:37;97232.47;;;14.90;100.00
55032;BME280;40928;51.076;7.950;2022-07-23T04:49:05;97249.94;;;14.92;100.00
55032;BME280;40928;51.076;7.950;2022-07-23T04:51:31;97244.84;;;14.91;100.00
55032;BME280;40928;51.076;7.950;2022-07-23T04:53:56;97254.53;;;14.92;100.00
55032;BME280;40928;51.076;7.950;2022-07-23T04:56:22;97257.75;;;14.94;100.00
55032;BME280;40928;51.076;7.950;2022-07-23T04:58:48;97255.06;;;14.94;100.00
55032;BME280;40928;51.076;7.950;2022-07-23T05:01:13;97255.59;;;14.96;100.00
55032;BME280;40928;51.076;7.950;2022-07-23T05:03:39;97257.50;;;14.96;100.00
55032;BME280;40928;51.076;7.950;2022-07-23T05:06:05;97254.28;;;14.99;100.00
55032;BME280;40928;51.076;7.950;2022-07-23T05:08:30;97258.31;;;15.01;100.00
55032;BME280;40928;51.076;7.950;2022-07-23T05:10:57;97257.81;;;15.04;100.00
55032;BME280;40928;51.076;7.950;2022-07-23T05:13:23;97260.78;;;15.08;100.00
55032;BME280;40928;51.076;7.950;2022-07-23T05:15:53;97261.59;;;15.14;100.00
55032;BME280;40928;51.076;7.950;2022-07-23T05:18:18;97267.56;;;15.21;100.00
55032;BME280;40928;51.076;7.950;2022-07-23T05:20:44;97265.44;;;15.28;100.00
55032;BME280;40928;51.076;7.950;2022-07-23T05:23:13;97260.88;;;15.34;100.00
55032;BME280;40928;51.076;7.950;2022-07-23T05:25:40;97273.53;;;15.33;100.00
55032;BME280;40928;51.076;7.950;2022-07-23T05:28:06;97271.91;;;15.32;100.00
55032;BME280;40928;51.076;7.950;2022-07-23T05:30:32;97275.63;;;15.26;100.00
55032;BME280;40928;51.076;7.950;2022-07-23T05:33:01;97274.56;;;15.22;100.00
55032;BME280;40928;51.076;7.950;2022-07-23T05:35:26;97279.16;;;15.27;100.00
55032;BME280;40928;51.076;7.950;2022-07-23T05:38:18;97284.25;;;15.28;100.00
55032;BME280;40928;51.076;7.950;2022-07-23T05:40:43;97282.66;;;15.32;100.00
55032;BME280;40928;51.076;7.950;2022-07-23T05:43:09;97284.84;;;15.35;100.00
55032;BME280;40928;51.076;7.950;2022-07-23T05:45:34;97288.34;;;15.41;100.00
55032;BME280;40928;51.076;7.950;2022-07-23T05:48:00;97292.94;;;15.46;100.00
55032;BME280;40928;51.076;7.950;2022-07-23T05:50:32;97306.16;;;15.47;100.00
55032;BME280;40928;51.076;7.950;2022-07-23T05:53:05;97302.06;;;15.45;100.00
55032;BME280;40928;51.076;7.950;2022-07-23T05:55:51;97298.34;;;15.51;100.00
55032;BME280;40928;51.076;7.950;2022-07-23T05:58:16;97306.44;;;15.56;100.00
55032;BME280;40928;51.076;7.950;2022-07-23T06:00:42;97303.19;;;15.59;100.00
55032;BME280;40928;51.076;7.950;2022-07-23T06:03:08;97301.09;;;15.66;100.00
55032;BME280;40928;51.076;7.950;2022-07-23T06:05:33;97309.47;;;15.75;100.00
55032;BME280;40928;51.076;7.950;2022-07-23T06:07:59;97309.75;;;15.84;99.80
55032;BME280;40928;51.076;7.950;2022-07-23T06:10:26;97308.97;;;15.89;98.87
55032;BME280;40928;51.076;7.950;2022-07-23T06:12:51;97309.78;;;15.94;98.47
55032;BME280;40928;51.076;7.950;2022-07-23T06:15:17;97310.06;;;15.93;97.48
55032;BME280;40928;51.076;7.950;2022-07-23T06:17:43;97316.28;;;15.98;97.42
55032;BME280;40928;51.076;7.950;2022-07-23T06:20:09;97322.19;;;16.06;97.42
55032;BME280;40928;51.076;7.950;2022-07-23T06:22:38;97318.44;;;16.12;96.64
55032;BME280;40928;51.076;7.950;2022-07-23T06:25:04;97320.09;;;16.18;96.28
55032;BME280;40928;51.076;7.950;2022-07-23T06:27:30;97309.59;;;16.27;95.38
55032;BME280;40928;51.076;7.950;2022-07-23T06:29:56;97314.44;;;16.35;94.18
55032;BME280;40928;51.076;7.950;2022-07-23T06:32:21;97322.25;;;16.47;92.84
55032;BME280;40928;51.076;7.950;2022-07-23T06:34:47;97316.31;;;16.50;88.90
55032;BME280;40928;51.076;7.950;2022-07-23T06:37:12;97326.28;;;16.50;87.49
55032;BME280;40928;51.076;7.950;2022-07-23T06:39:38;97321.97;;;16.43;87.25
55032;BME280;40928;51.076;7.950;2022-07-23T06:42:04;97326.56;;;16.48;87.93
55032;BME280;40928;51.076;7.950;2022-07-23T06:44:42;97330.88;;;16.49;87.13
55032;BME280;40928;51.076;7.950;2022-07-23T06:47:08;97330.59;;;16.46;84.58
55032;BME280;40928;51.076;7.950;2022-07-23T06:49:34;97337.88;;;16.40;83.44
55032;BME280;40928;51.076;7.950;2022-07-23T06:52:00;97332.22;;;16.36;83.50
55032;BME280;40928;51.076;7.950;2022-07-23T06:54:25;97337.63;;;16.41;84.29
55032;BME280;40928;51.076;7.950;2022-07-23T06:56:51;97338.69;;;16.51;84.38
55032;BME280;40928;51.076;7.950;2022-07-23T06:59:16;97343.81;;;16.63;83.24
55032;BME280;40928;51.076;7.950;2022-07-23T07:01:42;97344.34;;;16.65;81.76
55032;BME280;40928;51.076;7.950;2022-07-23T07:04:07;97345.13;;;16.75;82.09
55032;BME280;40928;51.076;7.950;2022-07-23T07:06:33;97337.84;;;16.86;82.48
55032;BME280;40928;51.076;7.950;2022-07-23T07:08:59;97348.13;;;16.95;82.99
55032;BME280;40928;51.076;7.950;2022-07-23T07:11:24;97345.94;;;17.07;81.60
55032;BME280;40928;51.076;7.950;2022-07-23T07:13:53;97352.38;;;17.16;80.74
55032;BME280;40928;51.076;7.950;2022-07-23T07:16:19;97351.31;;;17.28;79.10
55032;BME280;40928;51.076;7.950;2022-07-23T07:18:44;97357.22;;;17.35;79.49
55032;BME280;40928;51.076;7.950;2022-07-23T07:21:10;97360.44;;;17.42;79.67
55032;BME280;40928;51.076;7.950;2022-07-23T07:23:35;97353.66;;;17.50;80.12
55032;BME280;40928;51.076;7.950;2022-07-23T07:26:01;97347.38;;;17.60;79.32
55032;BME280;40928;51.076;7.950;2022-07-23T07:28:26;97356.84;;;17.62;79.09
55032;BME280;40928;51.076;7.950;2022-07-23T07:30:52;97361.94;;;17.69;78.65
55032;BME280;40928;51.076;7.950;2022-07-23T07:33:18;97357.88;;;17.72;78.21
55032;BME280;40928;51.076;7.950;2022-07-23T07:35:43;97358.47;;;17.58;78.45
55032;BME280;40928;51.076;7.950;2022-07-23T07:38:09;97357.44;;;17.49;79.10
55032;BME280;40928;51.076;7.950;2022-07-23T07:40:34;97361.47;;;17.46;78.58
55032;BME280;40928;51.076;7.950;2022-07-23T07:43:00;97362.81;;;17.54;79.54
55032;BME280;40928;51.076;7.950;2022-07-23T07:45:27;97360.69;;;17.51;78.25
55032;BME280;40928;51.076;7.950;2022-07-23T07:47:52;97365.50;;;17.54;78.23
55032;BME280;40928;51.076;7.950;2022-07-23T07:50:21;97373.34;;;17.56;78.23
55032;BME280;40928;51.076;7.950;2022-07-23T07:52:47;97366.56;;;17.58;78.78
55032;BME280;40928;51.076;7.950;2022-07-23T07:55:13;97376.53;;;17.73;78.81
55032;BME280;40928;51.076;7.950;2022-07-23T07:57:39;97368.59;;;17.92;75.99
55032;BME280;40928;51.076;7.950;2022-07-23T08:00:06;97376.66;;;18.08;75.96
55032;BME280;40928;51.076;7.950;2022-07-23T08:02:44;97372.78;;;18.24;75.58
55032;BME280;40928;51.076;7.950;2022-07-23T08:05:10;97371.38;;;18.27;74.24
55032;BME280;40928;51.076;7.950;2022-07-23T08:07:36;97377.00;;;18.41;75.18
55032;BME280;40928;51.076;7.950;2022-07-23T08:10:02;97381.66;;;18.30;74.62
55032;BME280;40928;51.076;7.950;2022-07-23T08:15:06;97386.63;;;18.52;74.57
55032;BME280;40928;51.076;7.950;2022-07-23T08:17:32;97388.28;;;18.48;73.38
55032;BME280;40928;51.076;7.950;2022-07-23T08:19:57;97393.13;;;18.51;73.18
55032;BME280;40928;51.076;7.950;2022-07-23T08:22:22;97397.63;;;18.66;72.71
55032;BME280;40928;51.076;7.950;2022-07-23T08:24:48;97395.63;;;18.77;72.20
55032;BME280;40928;51.076;7.950;2022-07-23T08:27:14;97395.28;;;18.89;73.43
55032;BME280;40928;51.076;7.950;2022-07-23T08:29:39;97392.19;;;19.06;72.44
55032;BME280;40928;51.076;7.950;2022-07-23T08:32:05;97400.81;;;19.08;71.59
55032;BME280;40928;51.076;7.950;2022-07-23T08:34:30;97396.69;;;19.16;71.15
55032;BME280;40928;51.076;7.950;2022-07-23T08:36:56;97398.44;;;19.31;70.56
55032;BME280;40928;51.076;7.950;2022-07-23T08:39:21;97401.63;;;19.09;71.56
55032;BME280;40928;51.076;7.950;2022-07-23T08:41:47;97410.72;;;19.18;69.85
55032;BME280;40928;51.076;7.950;2022-07-23T08:44:16;97405.13;;;19.09;68.72
55032;BME280;40928;51.076;7.950;2022-07-23T08:46:41;97410.13;;;18.97;70.09
55032;BME280;40928;51.076;7.950;2022-07-23T08:49:09;97415.69;;;18.76;69.71
55032;BME280;40928;51.076;7.950;2022-07-23T08:51:35;97411.28;;;18.85;70.71
55032;BME280;40928;51.076;7.950;2022-07-23T08:54:01;97414.91;;;18.70;70.59
55032;BME280;40928;51.076;7.950;2022-07-23T08:56:26;97412.81;;;18.57;70.78
55032;BME280;40928;51.076;7.950;2022-07-23T08:58:53;97411.75;;;18.58;71.01
55032;BME280;40928;51.076;7.950;2022-07-23T09:01:20;97411.72;;;18.63;70.01
55032;BME280;40928;51.076;7.950;2022-07-23T09:03:45;97413.28;;;18.69;70.37
55032;BME280;40928;51.076;7.950;2022-07-23T09:06:11;97427.53;;;18.80;70.20
55032;BME280;40928;51.076;7.950;2022-07-23T09:08:41;97417.84;;;19.14;68.76
55032;BME280;40928;51.076;7.950;2022-07-23T09:11:09;97416.25;;;19.37;68.27
55032;BME280;40928;51.076;7.950;2022-07-23T09:13:49;97416.84;;;19.58;66.61
55032;BME280;40928;51.076;7.950;2022-07-23T09:16:27;97419.09;;;20.00;64.97
55032;BME280;40928;51.076;7.950;2022-07-23T09:18:59;97412.31;;;20.21;63.15
55032;BME280;40928;51.076;7.950;2022-07-23T09:21:30;97413.94;;;20.42;62.11
55032;BME280;40928;51.076;7.950;2022-07-23T09:24:01;97414.72;;;20.42;62.52
55032;BME280;40928;51.076;7.950;2022-07-23T09:26:43;97413.19;;;20.36;62.48
55032;BME280;40928;51.076;7.950;2022-07-23T09:29:17;97415.53;;;20.62;61.34
55032;BME280;40928;51.076;7.950;2022-07-23T09:31:51;97418.25;;;20.23;60.11
55032;BME280;40928;51.076;7.950;2022-07-23T09:36:46;97423.28;;;20.11;62.31
55032;BME280;40928;51.076;7.950;2022-07-23T09:39:14;97415.31;;;20.39;62.62
55032;BME280;40928;51.076;7.950;2022-07-23T09:41:45;97418.31;;;20.57;60.11
55032;BME280;40928;51.076;7.950;2022-07-23T09:44:20;97423.88;;;20.46;59.90
55032;BME280;40928;51.076;7.950;2022-07-23T09:46:46;97428.72;;;20.68;60.72
55032;BME280;40928;51.076;7.950;2022-07-23T09:49:17;97428.22;;;20.86;60.84
55032;BME280;40928;51.076;7.950;2022-07-23T09:51:54;97424.63;;;20.90;59.97
55032;BME280;40928;51.076;7.950;2022-07-23T09:54:27;97425.31;;;21.29;60.24
55032;BME280;40928;51.076;7.950;2022-07-23T09:56:54;97426.78;;;21.54;59.63
55032;BME280;40928;51.076;7.950;2022-07-23T09:59:23;97425.09;;;21.72;60.76
55032;BME280;40928;51.076;7.950;2022-07-23T10:01:52;97423.38;;;21.77;57.35
55032;BME280;40928;51.076;7.950;2022-07-23T10:04:18;97429.44;;;21.87;58.00
55032;BME280;40928;51.076;7.950;2022-07-23T10:07:06;97431.53;;;22.04;57.45
55032;BME280;40928;51.076;7.950;2022-07-23T10:09:52;97430.16;;;22.30;56.54
55032;BME280;40928;51.076;7.950;2022-07-23T10:12:54;97423.69;;;22.40;55.54
55032;BME280;40928;51.076;7.950;2022-07-23T10:15:23;97424.25;;;22.14;55.23
55032;BME280;40928;51.076;7.950;2022-07-23T10:17:50;97423.81;;;22.20;56.12
55032;BME280;40928;51.076;7.950;2022-07-23T10:20:15;97423.03;;;22.20;54.67
55032;BME280;40928;51.076;7.950;2022-07-23T10:23:24;97424.31;;;22.36;53.27
55032;BME280;40928;51.076;7.950;2022-07-23T10:33:54;97433.44;;;21.62;55.64
55032;BME280;40928;51.076;7.950;2022-07-23T10:39:13;97425.97;;;21.82;57.35
55032;BME280;40928;51.076;7.950;2022-07-23T10:41:41;97418.75;;;21.91;53.61
55032;BME280;40928;51.076;7.950;2022-07-23T10:44:08;97420.59;;;22.32;53.63
55032;BME280;40928;51.076;7.950;2022-07-23T10:46:34;97420.06;;;22.81;52.67
55032;BME280;40928;51.076;7.950;2022-07-23T10:49:27;97415.94;;;23.15;51.64
55032;BME280;40928;51.076;7.950;2022-07-23T10:54:41;97417.50;;;23.07;52.69
55032;BME280;40928;51.076;7.950;2022-07-23T10:57:08;97406.19;;;23.46;51.65
55032;BME280;40928;51.076;7.950;2022-07-23T11:02:31;97406.91;;;23.69;51.57
55032;BME280;40928;51.076;7.950;2022-07-23T11:05:12;97413.94;;;24.01;50.65
55032;BME280;40928;51.076;7.950;2022-07-23T11:10:41;97417.13;;;23.54;50.41
55032;BME280;40928;51.076;7.950;2022-07-23T11:24:10;97405.97;;;24.84;45.66
55032;BME280;40928;51.076;7.950;2022-07-23T11:32:03;97405.78;;;25.16;42.74
55032;BME280;40928;51.076;7.950;2022-07-23T11:37:02;97402.44;;;24.92;43.96
55032;BME280;40928;51.076;7.950;2022-07-23T11:39:29;97403.06;;;24.63;45.24
55032;BME280;40928;51.076;7.950;2022-07-23T11:41:56;97401.97;;;24.64;45.00
55032;BME280;40928;51.076;7.950;2022-07-23T11:47:00;97399.72;;;24.48;43.67
55032;BME280;40928;51.076;7.950;2022-07-23T11:49:26;97402.91;;;24.24;45.29
55032;BME280;40928;51.076;7.950;2022-07-23T11:52:14;97396.03;;;24.36;44.95
55032;BME280;40928;51.076;7.950;2022-07-23T11:57:16;97397.16;;;24.35;44.76
55032;BME280;40928;51.076;7.950;2022-07-23T11:59:43;97397.31;;;24.65;43.92
55032;BME280;40928;51.076;7.950;2022-07-23T12:02:11;97400.22;;;24.86;45.27
55032;BME280;40928;51.076;7.950;2022-07-23T12:04:49;97400.50;;;24.93;43.28
55032;BME280;40928;51.076;7.950;2022-07-23T12:07:35;97394.09;;;24.89;42.83
55032;BME280;40928;51.076;7.950;2022-07-23T12:12:48;97401.94;;;25.08;43.69
55032;BME280;40928;51.076;7.950;2022-07-23T12:15:22;97392.97;;;24.90;44.07
55032;BME280;40928;51.076;7.950;2022-07-23T12:17:50;97396.63;;;25.03;43.53
55032;BME280;40928;51.076;7.950;2022-07-23T12:20:20;97402.72;;;25.08;44.77
55032;BME280;40928;51.076;7.950;2022-07-23T12:22:48;97389.72;;;25.14;43.41
55032;BME280;40928;51.076;7.950;2022-07-23T12:25:22;97396.81;;;25.06;44.09
55032;BME280;40928;51.076;7.950;2022-07-23T12:28:05;97390.66;;;25.09;44.60
55032;BME280;40928;51.076;7.950;2022-07-23T12:30:38;97399.41;;;24.76;44.20
55032;BME280;40928;51.076;7.950;2022-07-23T12:33:04;97396.22;;;24.74;44.86
55032;BME280;40928;51.076;7.950;2022-07-23T12:35:33;97405.03;;;24.62;44.83
55032;BME280;40928;51.076;7.950;2022-07-23T12:38:01;97398.59;;;24.50;45.13
55032;BME280;40928;51.076;7.950;2022-07-23T12:42:58;97400.38;;;24.81;44.06
55032;BME280;40928;51.076;7.950;2022-07-23T12:45:25;97404.69;;;24.55;44.54
55032;BME280;40928;51.076;7.950;2022-07-23T12:53:10;97401.50;;;24.44;45.04
55032;BME280;40928;51.076;7.950;2022-07-23T12:55:37;97408.06;;;24.26;45.64
55032;BME280;40928;51.076;7.950;2022-07-23T13:01:00;97401.00;;;24.77;45.61
55032;BME280;40928;51.076;7.950;2022-07-23T13:05:53;97389.59;;;24.67;45.53
55032;BME280;40928;51.076;7.950;2022-07-23T13:08:19;97397.63;;;24.81;45.03
55032;BME280;40928;51.076;7.950;2022-07-23T13:10:44;97394.41;;;24.61;44.93
55032;BME280;40928;51.076;7.950;2022-07-23T13:13:16;97397.94;;;24.26;45.51
55032;BME280;40928;51.076;7.950;2022-07-23T13:15:42;97398.75;;;24.36;45.65
55032;BME280;40928;51.076;7.950;2022-07-23T13:18:08;97394.91;;;24.28;45.74
55032;BME280;40928;51.076;7.950;2022-07-23T13:20:34;97397.63;;;24.37;45.35
55032;BME280;40928;51.076;7.950;2022-07-23T13:23:00;97403.06;;;24.45;45.30
55032;BME280;40928;51.076;7.950;2022-07-23T13:25:26;97395.69;;;24.28;45.49
55032;BME280;40928;51.076;7.950;2022-07-23T13:27:52;97403.41;;;24.53;46.03
55032;BME280;40928;51.076;7.950;2022-07-23T13:30:17;97397.94;;;24.61;45.04
55032;BME280;40928;51.076;7.950;2022-07-23T13:32:43;97409.50;;;24.67;43.97
55032;BME280;40928;51.076;7.950;2022-07-23T13:35:08;97400.84;;;24.56;43.77
55032;BME280;40928;51.076;7.950;2022-07-23T13:37:34;97403.56;;;24.47;44.38
55032;BME280;40928;51.076;7.950;2022-07-23T13:40:00;97414.00;;;24.63;44.12
55032;BME280;40928;51.076;7.950;2022-07-23T13:42:26;97401.19;;;24.81;44.02
55032;BME280;40928;51.076;7.950;2022-07-23T13:44:51;97401.94;;;24.99;43.57
55032;BME280;40928;51.076;7.950;2022-07-23T13:47:17;97409.66;;;25.06;43.58
55032;BME280;40928;51.076;7.950;2022-07-23T13:49:42;97411.75;;;24.65;42.81
55032;BME280;40928;51.076;7.950;2022-07-23T13:52:08;97406.63;;;24.63;43.89
55032;BME280;40928;51.076;7.950;2022-07-23T13:54:33;97409.03;;;24.65;43.67
55032;BME280;40928;51.076;7.950;2022-07-23T13:56:59;97400.03;;;24.56;42.65
55032;BME280;40928;51.076;7.950;2022-07-23T13:59:25;97395.56;;;24.51;42.49
55032;BME280;40928;51.076;7.950;2022-07-23T14:01:50;97400.84;;;24.65;42.83
55032;BME280;40928;51.076;7.950;2022-07-23T14:04:16;97414.34;;;24.70;42.55